sensor_id;sensor_type;location;lat;lon;timestamp;P1;durP1;ratioP1;P2;durP2;ratioP2
6665;SDS011;3369;49.906;8.598;2023-07-22T00:00:43;1.90;;;1.80;;
6665;SDS011;3369;49.906;8.598;2023-07-22T00:03:09;2.17;;;2.07;;
6665;SDS011;3369;49.906;8.598;2023-07-22T00:05:34;2.30;;;2.10;;
6665;SDS011;3369;49.906;8.598;2023-07-22T00:08:00;1.87;;;1.77;;
6665;SDS011;3369;49.906;8.598;2023-07-22T00:10:26;2.33;;;2.13;;
6665;SDS011;3369;49.906;8.598;2023-07-22T00:12:51;1.70;;;1.60;;
6665;SDS011;3369;49.906;8.598;2023-07-22T00:15:17;2.10;;;1.77;;
6665;SDS011;3369;49.906;8.598;2023-07-22T00:17:43;2.30;;;2.10;;
6665;SDS011;3369;49.906;8.598;2023-07-22T00:20:08;1.80;;;1.70;;
6665;SDS011;3369;49.906;8.598;2023-07-22T00:22:39;1.80;;;1.70;;
6665;SDS011;3369;49.906;8.598;2023-07-22T00:25:11;2.30;;;2.10;;
6665;SDS011;3369;49.906;8.598;2023-07-22T00:27:38;2.17;;;2.07;;
6665;SDS011;3369;49.906;8.598;2023-07-22T00:30:07;2.87;;;2.67;;
6665;SDS011;3369;49.906;8.598;2023-07-22T00:32:34;2.00;;;1.80;;
6665;SDS011;3369;49.906;8.598;2023-07-22T00:35:02;1.70;;;1.60;;
6665;SDS011;3369;49.906;8.598;2023-07-22T00:37:31;2.20;;;2.10;;
6665;SDS011;3369;49.906;8.598;2023-07-22T00:39:58;1.80;;;1.70;;
6665;SDS011;3369;49.906;8.598;2023-07-22T00:42:24;2.90;;;1.90;;
6665;SDS011;3369;49.906;8.598;2023-07-22T00:44:49;2.37;;;2.23;;
6665;SDS011;3369;49.906;8.598;2023-07-22T00:47:15;2.73;;;1.70;;
6665;SDS011;3369;49.906;8.598;2023-07-22T00:49:42;1.90;;;1.80;;
6665;SDS011;3369;49.906;8.598;2023-07-22T00:52:08;2.30;;;2.10;;
6665;SDS011;3369;49.906;8.598;2023-07-22T00:54:34;2.40;;;2.20;;
6665;SDS011;3369;49.906;8.598;2023-07-22T00:57:00;2.23;;;2.03;;
6665;SDS011;3369;49.906;8.598;2023-07-22T00:59:25;2.50;;;2.30;;
6665;SDS011;3369;49.906;8.598;2023-07-22T01:01:51;2.33;;;2.20;;
6665;SDS011;3369;49.906;8.598;2023-07-22T01:04:18;2.13;;;2.03;;
6665;SDS011;3369;49.906;8.598;2023-07-22T01:06:45;2.70;;;2.47;;
6665;SDS011;3369;49.906;8.598;2023-07-22T01:09:11;1.97;;;1.87;;
6665;SDS011;3369;49.906;8.598;2023-07-22T01:11:38;2.50;;;2.30;;
6665;SDS011;3369;49.906;8.598;2023-07-22T01:14:04;2.20;;;2.00;;
6665;SDS011;3369;49.906;8.598;2023-07-22T01:16:29;1.90;;;1.80;;
6665;SDS011;3369;49.906;8.598;2023-07-22T01:18:56;2.43;;;2.23;;
6665;SDS011;3369;49.906;8.598;2023-07-22T01:21:22;3.30;;;2.30;;
6665;SDS011;3369;49.906;8.598;2023-07-22T01:23:49;2.47;;;2.20;;
6665;SDS011;3369;49.906;8.598;2023-07-22T01:26:16;2.30;;;2.10;;
6665;SDS011;3369;49.906;8.598;2023-07-22T01:28:42;3.17;;;1.93;;
6665;SDS011;3369;49.906;8.598;2023-07-22T01:31:08;3.00;;;2.80;;
6665;SDS011;3369;49.906;8.598;2023-07-22T01:33:34;2.63;;;2.40;;
6665;SDS011;3369;49.906;8.598;2023-07-22T01:36:00;2.10;;;2.00;;
6665;SDS011;3369;49.906;8.598;2023-07-22T01:38:25;3.03;;;2.00;;
6665;SDS011;3369;49.906;8.598;2023-07-22T01:40:51;2.93;;;2.73;;
6665;SDS011;3369;49.906;8.598;2023-07-22T01:43:16;2.20;;;2.10;;
6665;SDS011;3369;49.906;8.598;2023-07-22T01:45:42;2.90;;;2.60;;
6665;SDS011;3369;49.906;8.598;2023-07-22T01:48:08;2.53;;;2.33;;
6665;SDS011;3369;49.906;8.598;2023-07-22T01:50:34;3.43;;;2.17;;
6665;SDS011;3369;49.906;8.598;2023-07-22T01:52:59;2.30;;;2.20;;
6665;SDS011;3369;49.906;8.598;2023-07-22T01:55:25;2.27;;;2.17;;
6665;SDS011;3369;49.906;8.598;2023-07-22T01:57:50;2.20;;;2.00;;
6665;SDS011;3369;49.906;8.598;2023-07-22T02:00:16;2.20;;;2.07;;
6665;SDS011;3369;49.906;8.598;2023-07-22T02:02:42;2.20;;;2.07;;
6665;SDS011;3369;49.906;8.598;2023-07-22T02:05:08;2.33;;;2.13;;
6665;SDS011;3369;49.906;8.598;2023-07-22T02:07:37;2.37;;;2.27;;
6665;SDS011;3369;49.906;8.598;2023-07-22T02:10:03;2.70;;;2.37;;
6665;SDS011;3369;49.906;8.598;2023-07-22T02:12:30;2.67;;;2.43;;
6665;SDS011;3369;49.906;8.598;2023-07-22T02:14:56;2.53;;;2.13;;
6665;SDS011;3369;49.906;8.598;2023-07-22T02:17:21;2.83;;;2.57;;
6665;SDS011;3369;49.906;8.598;2023-07-22T02:19:48;2.90;;;2.70;;
6665;SDS011;3369;49.906;8.598;2023-07-22T02:22:14;6.47;;;4.10;;
6665;SDS011;3369;49.906;8.598;2023-07-22T02:24:40;5.83;;;4.13;;
6665;SDS011;3369;49.906;8.598;2023-07-22T02:27:05;4.70;;;3.73;;
6665;SDS011;3369;49.906;8.598;2023-07-22T02:29:33;3.43;;;2.93;;
6665;SDS011;3369;49.906;8.598;2023-07-22T02:31:59;3.57;;;3.10;;
6665;SDS011;3369;49.906;8.598;2023-07-22T02:34:24;3.47;;;2.87;;
6665;SDS011;3369;49.906;8.598;2023-07-22T02:36:50;2.70;;;2.50;;
6665;SDS011;3369;49.906;8.598;2023-07-22T02:39:16;2.57;;;2.37;;
6665;SDS011;3369;49.906;8.598;2023-07-22T02:41:41;2.67;;;2.47;;
6665;SDS011;3369;49.906;8.598;2023-07-22T02:44:07;2.60;;;2.40;;
6665;SDS011;3369;49.906;8.598;2023-07-22T02:46:33;2.40;;;2.20;;
6665;SDS011;3369;49.906;8.598;2023-07-22T02:48:58;2.70;;;2.50;;
6665;SDS011;3369;49.906;8.598;2023-07-22T02:51:24;2.87;;;2.60;;
6665;SDS011;3369;49.906;8.598;2023-07-22T02:53:50;2.40;;;2.30;;
6665;SDS011;3369;49.906;8.598;2023-07-22T02:56:15;2.87;;;2.67;;
6665;SDS011;3369;49.906;8.598;2023-07-22T02:58:41;2.60;;;2.03;;
6665;SDS011;3369;49.906;8.598;2023-07-22T03:01:07;2.23;;;2.13;;
6665;SDS011;3369;49.906;8.598;2023-07-22T03:03:34;2.70;;;2.30;;
6665;SDS011;3369;49.906;8.598;2023-07-22T03:06:00;2.60;;;2.40;;
6665;SDS011;3369;49.906;8.598;2023-07-22T03:08:26;2.57;;;2.37;;
6665;SDS011;3369;49.906;8.598;2023-07-22T03:10:52;2.20;;;2.07;;
6665;SDS011;3369;49.906;8.598;2023-07-22T03:13:18;3.00;;;2.60;;
6665;SDS011;3369;49.906;8.598;2023-07-22T03:15:44;3.30;;;2.80;;
6665;SDS011;3369;49.906;8.598;2023-07-22T03:18:10;2.67;;;2.47;;
6665;SDS011;3369;49.906;8.598;2023-07-22T03:20:36;2.63;;;2.43;;
6665;SDS011;3369;49.906;8.598;2023-07-22T03:23:03;2.70;;;2.50;;
6665;SDS011;3369;49.906;8.598;2023-07-22T03:25:29;2.80;;;2.60;;
6665;SDS011;3369;49.906;8.598;2023-07-22T03:27:55;2.80;;;2.60;;
6665;SDS011;3369;49.906;8.598;2023-07-22T03:30:21;2.80;;;2.60;;
6665;SDS011;3369;49.906;8.598;2023-07-22T03:32:48;2.80;;;2.60;;
6665;SDS011;3369;49.906;8.598;2023-07-22T03:35:15;2.83;;;2.60;;
6665;SDS011;3369;49.906;8.598;2023-07-22T03:37:42;2.73;;;2.53;;
6665;SDS011;3369;49.906;8.598;2023-07-22T03:40:08;2.77;;;2.50;;
6665;SDS011;3369;49.906;8.598;2023-07-22T03:42:48;2.97;;;2.77;;
6665;SDS011;3369;49.906;8.598;2023-07-22T03:45:15;2.87;;;2.67;;
6665;SDS011;3369;49.906;8.598;2023-07-22T03:47:43;2.97;;;2.70;;
6665;SDS011;3369;49.906;8.598;2023-07-22T03:50:10;3.60;;;2.50;;
6665;SDS011;3369;49.906;8.598;2023-07-22T03:52:35;2.80;;;2.60;;
6665;SDS011;3369;49.906;8.598;2023-07-22T03:55:01;2.43;;;2.30;;
6665;SDS011;3369;49.906;8.598;2023-07-22T03:57:27;2.47;;;2.33;;
6665;SDS011;3369;49.906;8.598;2023-07-22T03:59:54;2.40;;;2.30;;
6665;SDS011;3369;49.906;8.598;2023-07-22T04:02:20;3.00;;;2.80;;
6665;SDS011;3369;49.906;8.598;2023-07-22T04:04:46;2.50;;;2.33;;
6665;SDS011;3369;49.906;8.598;2023-07-22T04:07:12;2.80;;;2.60;;
6665;SDS011;3369;49.906;8.598;2023-07-22T04:09:37;2.40;;;2.20;;
6665;SDS011;3369;49.906;8.598;2023-07-22T04:12:03;2.60;;;2.40;;
6665;SDS011;3369;49.906;8.598;2023-07-22T04:14:29;2.97;;;2.77;;
6665;SDS011;3369;49.906;8.598;2023-07-22T04:16:55;3.97;;;2.97;;
6665;SDS011;3369;49.906;8.598;2023-07-22T04:19:20;3.30;;;2.67;;
6665;SDS011;3369;49.906;8.598;2023-07-22T04:21:46;2.90;;;2.70;;
6665;SDS011;3369;49.906;8.598;2023-07-22T04:24:12;2.50;;;2.30;;
6665;SDS011;3369;49.906;8.598;2023-07-22T04:26:37;2.67;;;2.47;;
6665;SDS011;3369;49.906;8.598;2023-07-22T04:29:05;2.57;;;2.37;;
6665;SDS011;3369;49.906;8.598;2023-07-22T04:31:30;2.80;;;2.60;;
6665;SDS011;3369;49.906;8.598;2023-07-22T04:33:58;3.47;;;3.17;;
6665;SDS011;3369;49.906;8.598;2023-07-22T04:36:23;3.47;;;3.23;;
6665;SDS011;3369;49.906;8.598;2023-07-22T04:38:49;3.10;;;2.70;;
6665;SDS011;3369;49.906;8.598;2023-07-22T04:41:14;8.07;;;5.27;;
6665;SDS011;3369;49.906;8.598;2023-07-22T04:43:40;7.80;;;4.80;;
6665;SDS011;3369;49.906;8.598;2023-07-22T04:46:06;5.87;;;5.13;;
6665;SDS011;3369;49.906;8.598;2023-07-22T04:48:32;7.27;;;5.77;;
6665;SDS011;3369;49.906;8.598;2023-07-22T04:50:57;8.40;;;5.07;;
6665;SDS011;3369;49.906;8.598;2023-07-22T04:53:23;6.73;;;5.20;;
6665;SDS011;3369;49.906;8.598;2023-07-22T04:55:48;6.57;;;4.70;;
6665;SDS011;3369;49.906;8.598;2023-07-22T04:58:14;4.13;;;3.73;;
6665;SDS011;3369;49.906;8.598;2023-07-22T05:00:40;4.53;;;4.13;;
6665;SDS011;3369;49.906;8.598;2023-07-22T05:03:07;4.50;;;3.87;;
6665;SDS011;3369;49.906;8.598;2023-07-22T05:05:33;4.87;;;3.90;;
6665;SDS011;3369;49.906;8.598;2023-07-22T05:07:58;3.40;;;3.10;;
6665;SDS011;3369;49.906;8.598;2023-07-22T05:10:24;3.73;;;3.30;;
6665;SDS011;3369;49.906;8.598;2023-07-22T05:12:50;3.97;;;3.23;;
6665;SDS011;3369;49.906;8.598;2023-07-22T05:15:15;3.40;;;3.10;;
6665;SDS011;3369;49.906;8.598;2023-07-22T05:17:41;3.43;;;3.13;;
6665;SDS011;3369;49.906;8.598;2023-07-22T05:20:07;3.37;;;3.13;;
6665;SDS011;3369;49.906;8.598;2023-07-22T05:22:37;2.70;;;2.50;;
6665;SDS011;3369;49.906;8.598;2023-07-22T05:25:04;3.03;;;2.83;;
6665;SDS011;3369;49.906;8.598;2023-07-22T05:27:30;2.90;;;2.70;;
6665;SDS011;3369;49.906;8.598;2023-07-22T05:29:56;2.63;;;2.53;;
6665;SDS011;3369;49.906;8.598;2023-07-22T05:32:22;2.70;;;2.50;;
6665;SDS011;3369;49.906;8.598;2023-07-22T05:34:47;2.97;;;2.67;;
6665;SDS011;3369;49.906;8.598;2023-07-22T05:37:13;2.80;;;2.60;;
6665;SDS011;3369;49.906;8.598;2023-07-22T05:39:38;2.70;;;2.50;;
6665;SDS011;3369;49.906;8.598;2023-07-22T05:42:04;3.17;;;2.97;;
6665;SDS011;3369;49.906;8.598;2023-07-22T05:44:30;4.80;;;4.23;;
6665;SDS011;3369;49.906;8.598;2023-07-22T05:46:55;4.27;;;3.90;;
6665;SDS011;3369;49.906;8.598;2023-07-22T05:49:21;5.87;;;5.03;;
6665;SDS011;3369;49.906;8.598;2023-07-22T05:51:47;3.63;;;3.00;;
6665;SDS011;3369;49.906;8.598;2023-07-22T05:54:12;3.90;;;3.50;;
6665;SDS011;3369;49.906;8.598;2023-07-22T05:56:38;4.00;;;3.70;;
6665;SDS011;3369;49.906;8.598;2023-07-22T05:59:04;3.47;;;3.17;;
6665;SDS011;3369;49.906;8.598;2023-07-22T06:01:29;5.30;;;3.90;;
6665;SDS011;3369;49.906;8.598;2023-07-22T06:03:55;3.00;;;2.80;;
6665;SDS011;3369;49.906;8.598;2023-07-22T06:06:21;3.80;;;3.40;;
6665;SDS011;3369;49.906;8.598;2023-07-22T06:08:46;3.60;;;3.30;;
6665;SDS011;3369;49.906;8.598;2023-07-22T06:11:12;3.57;;;3.27;;
6665;SDS011;3369;49.906;8.598;2023-07-22T06:13:37;4.90;;;3.70;;
6665;SDS011;3369;49.906;8.598;2023-07-22T06:16:03;3.53;;;3.23;;
6665;SDS011;3369;49.906;8.598;2023-07-22T06:18:29;4.53;;;3.67;;
6665;SDS011;3369;49.906;8.598;2023-07-22T06:20:54;2.87;;;2.67;;
6665;SDS011;3369;49.906;8.598;2023-07-22T06:23:20;4.33;;;3.93;;
6665;SDS011;3369;49.906;8.598;2023-07-22T06:25:45;3.53;;;3.20;;
6665;SDS011;3369;49.906;8.598;2023-07-22T06:28:11;4.10;;;3.70;;
6665;SDS011;3369;49.906;8.598;2023-07-22T06:30:36;4.60;;;3.50;;
6665;SDS011;3369;49.906;8.598;2023-07-22T06:33:02;3.30;;;3.10;;
6665;SDS011;3369;49.906;8.598;2023-07-22T06:35:28;3.70;;;3.40;;
6665;SDS011;3369;49.906;8.598;2023-07-22T06:37:53;6.93;;;4.83;;
6665;SDS011;3369;49.906;8.598;2023-07-22T06:40:19;3.83;;;3.53;;
6665;SDS011;3369;49.906;8.598;2023-07-22T06:42:44;3.63;;;3.30;;
6665;SDS011;3369;49.906;8.598;2023-07-22T06:45:10;3.70;;;3.40;;
6665;SDS011;3369;49.906;8.598;2023-07-22T06:47:36;4.00;;;3.30;;
6665;SDS011;3369;49.906;8.598;2023-07-22T06:50:02;3.57;;;3.27;;
6665;SDS011;3369;49.906;8.598;2023-07-22T06:52:29;3.67;;;3.37;;
6665;SDS011;3369;49.906;8.598;2023-07-22T06:54:55;3.07;;;2.77;;
6665;SDS011;3369;49.906;8.598;2023-07-22T06:57:21;4.33;;;3.30;;
6665;SDS011;3369;49.906;8.598;2023-07-22T06:59:47;5.63;;;3.63;;
6665;SDS011;3369;49.906;8.598;2023-07-22T07:02:12;3.53;;;3.23;;
6665;SDS011;3369;49.906;8.598;2023-07-22T07:04:38;4.40;;;4.07;;
6665;SDS011;3369;49.906;8.598;2023-07-22T07:07:05;4.17;;;3.77;;
6665;SDS011;3369;49.906;8.598;2023-07-22T07:09:30;4.20;;;3.87;;
6665;SDS011;3369;49.906;8.598;2023-07-22T07:11:56;4.17;;;3.87;;
6665;SDS011;3369;49.906;8.598;2023-07-22T07:14:22;3.97;;;3.57;;
6665;SDS011;3369;49.906;8.598;2023-07-22T07:16:49;6.97;;;4.10;;
6665;SDS011;3369;49.906;8.598;2023-07-22T07:19:14;4.40;;;4.10;;
6665;SDS011;3369;49.906;8.598;2023-07-22T07:21:40;6.00;;;4.27;;
6665;SDS011;3369;49.906;8.598;2023-07-22T07:24:05;6.60;;;4.07;;
6665;SDS011;3369;49.906;8.598;2023-07-22T07:26:31;4.90;;;4.43;;
6665;SDS011;3369;49.906;8.598;2023-07-22T07:28:56;6.30;;;3.77;;
6665;SDS011;3369;49.906;8.598;2023-07-22T07:31:22;4.43;;;4.00;;
6665;SDS011;3369;49.906;8.598;2023-07-22T07:33:48;4.03;;;3.60;;
6665;SDS011;3369;49.906;8.598;2023-07-22T07:36:13;4.27;;;3.27;;
6665;SDS011;3369;49.906;8.598;2023-07-22T07:38:39;5.43;;;3.33;;
6665;SDS011;3369;49.906;8.598;2023-07-22T07:41:06;3.83;;;3.23;;
6665;SDS011;3369;49.906;8.598;2023-07-22T07:43:33;5.10;;;3.90;;
6665;SDS011;3369;49.906;8.598;2023-07-22T07:46:12;3.37;;;3.07;;
6665;SDS011;3369;49.906;8.598;2023-07-22T07:48:39;3.37;;;3.07;;
6665;SDS011;3369;49.906;8.598;2023-07-22T07:51:05;3.50;;;3.20;;
6665;SDS011;3369;49.906;8.598;2023-07-22T07:53:31;7.47;;;3.40;;
6665;SDS011;3369;49.906;8.598;2023-07-22T07:55:56;5.93;;;3.30;;
6665;SDS011;3369;49.906;8.598;2023-07-22T07:58:22;3.40;;;2.72;;
6665;SDS011;3369;49.906;8.598;2023-07-22T08:00:47;3.87;;;2.90;;
6665;SDS011;3369;49.906;8.598;2023-07-22T08:03:13;3.70;;;3.00;;
6665;SDS011;3369;49.906;8.598;2023-07-22T08:05:39;3.03;;;2.83;;
6665;SDS011;3369;49.906;8.598;2023-07-22T08:08:04;4.05;;;3.70;;
6665;SDS011;3369;49.906;8.598;2023-07-22T08:10:30;3.10;;;2.83;;
6665;SDS011;3369;49.906;8.598;2023-07-22T08:12:56;4.70;;;4.00;;
6665;SDS011;3369;49.906;8.598;2023-07-22T08:15:21;4.73;;;4.00;;
6665;SDS011;3369;49.906;8.598;2023-07-22T08:17:47;3.90;;;3.50;;
6665;SDS011;3369;49.906;8.598;2023-07-22T08:20:12;4.70;;;3.37;;
6665;SDS011;3369;49.906;8.598;2023-07-22T08:22:38;6.00;;;3.13;;
6665;SDS011;3369;49.906;8.598;2023-07-22T08:25:04;3.83;;;3.13;;
6665;SDS011;3369;49.906;8.598;2023-07-22T08:27:30;5.10;;;3.50;;
6665;SDS011;3369;49.906;8.598;2023-07-22T08:29:55;4.37;;;3.50;;
6665;SDS011;3369;49.906;8.598;2023-07-22T08:32:21;4.80;;;3.17;;
6665;SDS011;3369;49.906;8.598;2023-07-22T08:34:46;6.20;;;3.00;;
6665;SDS011;3369;49.906;8.598;2023-07-22T08:37:12;4.03;;;2.93;;
6665;SDS011;3369;49.906;8.598;2023-07-22T08:39:38;4.07;;;3.77;;
6665;SDS011;3369;49.906;8.598;2023-07-22T08:42:04;3.50;;;3.10;;
6665;SDS011;3369;49.906;8.598;2023-07-22T08:44:31;2.70;;;2.50;;
6665;SDS011;3369;49.906;8.598;2023-07-22T08:47:01;3.67;;;3.10;;
6665;SDS011;3369;49.906;8.598;2023-07-22T08:49:29;4.63;;;3.70;;
6665;SDS011;3369;49.906;8.598;2023-07-22T08:51:55;3.33;;;3.03;;
6665;SDS011;3369;49.906;8.598;2023-07-22T08:54:24;2.80;;;2.60;;
6665;SDS011;3369;49.906;8.598;2023-07-22T08:56:50;5.87;;;3.10;;
6665;SDS011;3369;49.906;8.598;2023-07-22T08:59:19;4.47;;;2.97;;
6665;SDS011;3369;49.906;8.598;2023-07-22T09:01:46;3.17;;;2.87;;
6665;SDS011;3369;49.906;8.598;2023-07-22T09:04:13;5.07;;;2.80;;
6665;SDS011;3369;49.906;8.598;2023-07-22T09:06:38;4.37;;;2.93;;
6665;SDS011;3369;49.906;8.598;2023-07-22T09:09:06;3.92;;;3.13;;
6665;SDS011;3369;49.906;8.598;2023-07-22T09:11:34;3.87;;;3.13;;
6665;SDS011;3369;49.906;8.598;2023-07-22T09:14:00;4.53;;;3.40;;
6665;SDS011;3369;49.906;8.598;2023-07-22T09:16:27;5.50;;;3.90;;
6665;SDS011;3369;49.906;8.598;2023-07-22T09:18:55;6.25;;;3.25;;
6665;SDS011;3369;49.906;8.598;2023-07-22T09:21:22;5.32;;;3.15;;
6665;SDS011;3369;49.906;8.598;2023-07-22T09:23:48;4.23;;;3.23;;
6665;SDS011;3369;49.906;8.598;2023-07-22T09:26:17;5.37;;;3.13;;
6665;SDS011;3369;49.906;8.598;2023-07-22T09:28:55;6.57;;;3.50;;
6665;SDS011;3369;49.906;8.598;2023-07-22T09:31:24;3.08;;;2.78;;
6665;SDS011;3369;49.906;8.598;2023-07-22T09:33:50;3.00;;;2.80;;
6665;SDS011;3369;49.906;8.598;2023-07-22T09:36:19;4.95;;;2.90;;
6665;SDS011;3369;49.906;8.598;2023-07-22T09:38:45;2.78;;;2.53;;
6665;SDS011;3369;49.906;8.598;2023-07-22T09:41:24;5.13;;;3.28;;
6665;SDS011;3369;49.906;8.598;2023-07-22T09:43:53;2.87;;;2.63;;
6665;SDS011;3369;49.906;8.598;2023-07-22T09:46:18;2.50;;;2.30;;
6665;SDS011;3369;49.906;8.598;2023-07-22T09:48:44;5.03;;;3.07;;
6665;SDS011;3369;49.906;8.598;2023-07-22T09:51:12;3.20;;;3.00;;
6665;SDS011;3369;49.906;8.598;2023-07-22T09:53:47;3.07;;;2.40;;
6665;SDS011;3369;49.906;8.598;2023-07-22T09:56:24;3.30;;;3.00;;
6665;SDS011;3369;49.906;8.598;2023-07-22T09:58:49;2.53;;;2.33;;
6665;SDS011;3369;49.906;8.598;2023-07-22T10:01:16;5.17;;;2.53;;
6665;SDS011;3369;49.906;8.598;2023-07-22T10:03:45;4.25;;;2.30;;
6665;SDS011;3369;49.906;8.598;2023-07-22T10:06:12;3.13;;;2.72;;
6665;SDS011;3369;49.906;8.598;2023-07-22T10:08:38;3.17;;;2.30;;
6665;SDS011;3369;49.906;8.598;2023-07-22T10:11:05;3.88;;;3.17;;
6665;SDS011;3369;49.906;8.598;2023-07-22T10:13:32;2.53;;;2.22;;
6665;SDS011;3369;49.906;8.598;2023-07-22T10:15:58;4.27;;;2.63;;
6665;SDS011;3369;49.906;8.598;2023-07-22T10:18:25;3.50;;;3.20;;
6665;SDS011;3369;49.906;8.598;2023-07-22T10:20:51;4.13;;;2.47;;
6665;SDS011;3369;49.906;8.598;2023-07-22T10:23:18;4.27;;;2.97;;
6665;SDS011;3369;49.906;8.598;2023-07-22T10:25:45;5.57;;;2.93;;
6665;SDS011;3369;49.906;8.598;2023-07-22T10:28:12;2.80;;;2.55;;
6665;SDS011;3369;49.906;8.598;2023-07-22T10:30:39;4.93;;;2.95;;
6665;SDS011;3369;49.906;8.598;2023-07-22T10:33:05;3.58;;;2.42;;
6665;SDS011;3369;49.906;8.598;2023-07-22T10:38:08;3.80;;;2.80;;
6665;SDS011;3369;49.906;8.598;2023-07-22T10:40:49;6.90;;;2.90;;
6665;SDS011;3369;49.906;8.598;2023-07-22T10:43:16;5.80;;;3.17;;
6665;SDS011;3369;49.906;8.598;2023-07-22T10:45:48;3.30;;;2.93;;
6665;SDS011;3369;49.906;8.598;2023-07-22T10:48:18;5.40;;;3.40;;
6665;SDS011;3369;49.906;8.598;2023-07-22T10:50:46;6.15;;;3.40;;
6665;SDS011;3369;49.906;8.598;2023-07-22T10:53:19;4.63;;;3.00;;
6665;SDS011;3369;49.906;8.598;2023-07-22T10:56:07;3.00;;;2.60;;
6665;SDS011;3369;49.906;8.598;2023-07-22T11:11:55;3.20;;;2.78;;
6665;SDS011;3369;49.906;8.598;2023-07-22T11:14:51;2.70;;;2.50;;
6665;SDS011;3369;49.906;8.598;2023-07-22T11:17:18;3.83;;;2.80;;
6665;SDS011;3369;49.906;8.598;2023-07-22T11:19:56;3.20;;;2.90;;
6665;SDS011;3369;49.906;8.598;2023-07-22T11:22:23;4.20;;;2.80;;
6665;SDS011;3369;49.906;8.598;2023-07-22T11:24:49;6.53;;;3.28;;
6665;SDS011;3369;49.906;8.598;2023-07-22T11:27:14;3.08;;;2.88;;
6665;SDS011;3369;49.906;8.598;2023-07-22T11:29:40;3.33;;;3.00;;
6665;SDS011;3369;49.906;8.598;2023-07-22T11:32:06;3.95;;;3.00;;
6665;SDS011;3369;49.906;8.598;2023-07-22T11:34:41;2.90;;;2.55;;
6665;SDS011;3369;49.906;8.598;2023-07-22T11:37:09;4.05;;;2.78;;
6665;SDS011;3369;49.906;8.598;2023-07-22T11:39:35;2.57;;;2.37;;
6665;SDS011;3369;49.906;8.598;2023-07-22T11:42:03;3.10;;;2.90;;
6665;SDS011;3369;49.906;8.598;2023-07-22T11:44:29;4.03;;;3.40;;
6665;SDS011;3369;49.906;8.598;2023-07-22T11:49:35;3.22;;;2.88;;
6665;SDS011;3369;49.906;8.598;2023-07-22T11:52:05;5.50;;;2.78;;
6665;SDS011;3369;49.906;8.598;2023-07-22T11:54:32;2.97;;;2.75;;
6665;SDS011;3369;49.906;8.598;2023-07-22T11:59:51;4.40;;;2.75;;
6665;SDS011;3369;49.906;8.598;2023-07-22T12:02:20;3.10;;;2.60;;
6665;SDS011;3369;49.906;8.598;2023-07-22T12:07:29;4.68;;;2.97;;
6665;SDS011;3369;49.906;8.598;2023-07-22T12:10:05;2.80;;;2.60;;
6665;SDS011;3369;49.906;8.598;2023-07-22T12:12:53;4.07;;;2.60;;
6665;SDS011;3369;49.906;8.598;2023-07-22T12:15:19;6.18;;;2.97;;
6665;SDS011;3369;49.906;8.598;2023-07-22T12:17:56;3.05;;;2.85;;
6665;SDS011;3369;49.906;8.598;2023-07-22T12:20:27;3.20;;;2.95;;
6665;SDS011;3369;49.906;8.598;2023-07-22T12:22:54;2.88;;;2.67;;
6665;SDS011;3369;49.906;8.598;2023-07-22T12:25:20;3.60;;;2.45;;
6665;SDS011;3369;49.906;8.598;2023-07-22T12:27:46;4.32;;;2.83;;
6665;SDS011;3369;49.906;8.598;2023-07-22T12:30:12;3.45;;;3.15;;
6665;SDS011;3369;49.906;8.598;2023-07-22T12:32:38;3.60;;;2.28;;
6665;SDS011;3369;49.906;8.598;2023-07-22T12:35:04;5.57;;;3.15;;
6665;SDS011;3369;49.906;8.598;2023-07-22T12:37:30;4.75;;;2.88;;
6665;SDS011;3369;49.906;8.598;2023-07-22T12:39:56;5.13;;;3.28;;
6665;SDS011;3369;49.906;8.598;2023-07-22T12:42:22;3.80;;;2.60;;
6665;SDS011;3369;49.906;8.598;2023-07-22T12:44:48;3.05;;;2.75;;
6665;SDS011;3369;49.906;8.598;2023-07-22T12:47:13;4.43;;;2.50;;
6665;SDS011;3369;49.906;8.598;2023-07-22T12:49:39;3.13;;;2.80;;
6665;SDS011;3369;49.906;8.598;2023-07-22T12:52:05;3.78;;;2.72;;
6665;SDS011;3369;49.906;8.598;2023-07-22T12:54:34;2.47;;;2.28;;
6665;SDS011;3369;49.906;8.598;2023-07-22T12:57:00;4.55;;;2.58;;
6665;SDS011;3369;49.906;8.598;2023-07-22T12:59:25;2.58;;;2.38;;
6665;SDS011;3369;49.906;8.598;2023-07-22T13:01:51;3.38;;;2.63;;
6665;SDS011;3369;49.906;8.598;2023-07-22T13:04:17;2.70;;;2.40;;
6665;SDS011;3369;49.906;8.598;2023-07-22T13:06:42;5.72;;;2.60;;
6665;SDS011;3369;49.906;8.598;2023-07-22T13:09:08;3.50;;;2.65;;
6665;SDS011;3369;49.906;8.598;2023-07-22T13:11:34;3.97;;;2.78;;
6665;SDS011;3369;49.906;8.598;2023-07-22T13:14:00;3.85;;;2.63;;
6665;SDS011;3369;49.906;8.598;2023-07-22T13:16:26;4.35;;;2.53;;
6665;SDS011;3369;49.906;8.598;2023-07-22T13:18:51;5.85;;;2.50;;
6665;SDS011;3369;49.906;8.598;2023-07-22T13:21:17;5.28;;;2.72;;
6665;SDS011;3369;49.906;8.598;2023-07-22T13:23:43;4.28;;;3.08;;
6665;SDS011;3369;49.906;8.598;2023-07-22T13:26:08;4.50;;;2.67;;
6665;SDS011;3369;49.906;8.598;2023-07-22T13:28:34;2.50;;;2.30;;
6665;SDS011;3369;49.906;8.598;2023-07-22T13:30:59;5.43;;;2.85;;
6665;SDS011;3369;49.906;8.598;2023-07-22T13:33:25;3.15;;;2.42;;
6665;SDS011;3369;49.906;8.598;2023-07-22T13:35:51;5.50;;;2.75;;
6665;SDS011;3369;49.906;8.598;2023-07-22T13:38:16;3.55;;;2.50;;
6665;SDS011;3369;49.906;8.598;2023-07-22T13:40:42;3.50;;;2.83;;
6665;SDS011;3369;49.906;8.598;2023-07-22T13:43:07;3.00;;;2.70;;
6665;SDS011;3369;49.906;8.598;2023-07-22T13:45:34;3.05;;;2.75;;
6665;SDS011;3369;49.906;8.598;2023-07-22T13:48:00;4.25;;;3.00;;
6665;SDS011;3369;49.906;8.598;2023-07-22T13:50:26;4.15;;;3.00;;
6665;SDS011;3369;49.906;8.598;2023-07-22T13:52:52;2.70;;;2.40;;
6665;SDS011;3369;49.906;8.598;2023-07-22T13:55:18;4.20;;;2.90;;
6665;SDS011;3369;49.906;8.598;2023-07-22T13:57:43;6.88;;;2.70;;
6665;SDS011;3369;49.906;8.598;2023-07-22T14:00:09;3.13;;;2.70;;
6665;SDS011;3369;49.906;8.598;2023-07-22T14:02:35;3.10;;;2.67;;
6665;SDS011;3369;49.906;8.598;2023-07-22T14:05:02;5.60;;;2.83;;
6665;SDS011;3369;49.906;8.598;2023-07-22T14:07:29;4.00;;;2.72;;
6665;SDS011;3369;49.906;8.598;2023-07-22T14:09:54;3.45;;;3.10;;
6665;SDS011;3369;49.906;8.598;2023-07-22T14:12:20;5.30;;;2.72;;
6665;SDS011;3369;49.906;8.598;2023-07-22T14:14:45;4.68;;;2.45;;
6665;SDS011;3369;49.906;8.598;2023-07-22T14:17:11;2.95;;;2.63;;
6665;SDS011;3369;49.906;8.598;2023-07-22T14:19:37;3.33;;;3.03;;
6665;SDS011;3369;49.906;8.598;2023-07-22T14:22:03;5.40;;;2.90;;
6665;SDS011;3369;49.906;8.598;2023-07-22T14:24:29;4.13;;;3.58;;
6665;SDS011;3369;49.906;8.598;2023-07-22T14:26:55;3.15;;;2.85;;
6665;SDS011;3369;49.906;8.598;2023-07-22T14:29:21;3.72;;;3.08;;
6665;SDS011;3369;49.906;8.598;2023-07-22T14:31:46;3.00;;;2.70;;
6665;SDS011;3369;49.906;8.598;2023-07-22T14:34:12;3.47;;;2.67;;
6665;SDS011;3369;49.906;8.598;2023-07-22T14:36:38;5.28;;;3.05;;
6665;SDS011;3369;49.906;8.598;2023-07-22T14:39:03;3.35;;;2.83;;
6665;SDS011;3369;49.906;8.598;2023-07-22T14:41:29;2.85;;;2.60;;
6665;SDS011;3369;49.906;8.598;2023-07-22T14:43:55;4.15;;;2.78;;
6665;SDS011;3369;49.906;8.598;2023-07-22T14:46:22;3.25;;;2.70;;
6665;SDS011;3369;49.906;8.598;2023-07-22T14:48:47;5.07;;;3.30;;
6665;SDS011;3369;49.906;8.598;2023-07-22T14:51:13;3.38;;;2.85;;
6665;SDS011;3369;49.906;8.598;2023-07-22T14:53:39;4.43;;;3.15;;
6665;SDS011;3369;49.906;8.598;2023-07-22T14:56:05;3.72;;;2.65;;
6665;SDS011;3369;49.906;8.598;2023-07-22T14:58:32;3.33;;;3.03;;
6665;SDS011;3369;49.906;8.598;2023-07-22T15:00:57;3.63;;;3.03;;
6665;SDS011;3369;49.906;8.598;2023-07-22T15:03:23;2.97;;;2.47;;
6665;SDS011;3369;49.906;8.598;2023-07-22T15:05:49;4.45;;;2.80;;
6665;SDS011;3369;49.906;8.598;2023-07-22T15:08:14;3.75;;;2.40;;
6665;SDS011;3369;49.906;8.598;2023-07-22T15:10:40;4.53;;;2.72;;
6665;SDS011;3369;49.906;8.598;2023-07-22T15:13:05;2.75;;;2.55;;
6665;SDS011;3369;49.906;8.598;2023-07-22T15:15:31;4.65;;;2.90;;
6665;SDS011;3369;49.906;8.598;2023-07-22T15:17:57;3.10;;;2.80;;
6665;SDS011;3369;49.906;8.598;2023-07-22T15:20:22;2.72;;;2.53;;
6665;SDS011;3369;49.906;8.598;2023-07-22T15:22:48;5.57;;;3.05;;
6665;SDS011;3369;49.906;8.598;2023-07-22T15:25:14;4.40;;;2.80;;
6665;SDS011;3369;49.906;8.598;2023-07-22T15:27:40;4.93;;;2.95;;
6665;SDS011;3369;49.906;8.598;2023-07-22T15:30:07;3.30;;;2.67;;
6665;SDS011;3369;49.906;8.598;2023-07-22T15:32:33;3.33;;;2.92;;
6665;SDS011;3369;49.906;8.598;2023-07-22T15:34:59;2.97;;;2.60;;